Skyline Princess — WDB7684 — position and weather

sailwx.info

Track history (hours):
 
Tides and Currents Weather Stations Pressure Air Temp Water Temp Dewpoint Dewpoint Depression Visibility Wind Speed Wind Dir Waves Ship Positions

Skyline Princess

Owner: Skyline Cruise Lines Inc, Flushing, NY. More information available from US FCC via Universal Licensing System and Coast Guard Vessel Documentation Center.

Last reported at 2018-Aug-14 02:58 UTC. Time now 2018-Aug-14 07:04 UTC.
Position N 40°46' W 073°57'.

Length 35 m; draft 1.8 m.

Type: Ship. MMSI: 366946170.

Date/timePositionNaut miles runAvg speedWind from/ knotsBaromVisibWave heightAir tempDewpointWater temp
2018-Aug-14 02:58N 40°46' W 073°57'4 9.6
2018-Aug-14 02:30N 40°42' W 074°00'0 0.4
2018-Aug-14 02:00N 40°42' W 074°01'2 4.5
2018-Aug-14 01:30N 40°43' W 073°58'2 0.1
2018-Aug-13 03:37N 40°46' W 073°57'1 8.0
2018-Aug-13 03:30N 40°45' W 073°58'4 7.5
2018-Aug-13 03:00N 40°42' W 074°01'0 0.5
2018-Aug-13 02:30N 40°42' W 074°01'3 5.2
2018-Aug-13 02:00N 40°44' W 073°58'2 0.3
2018-Aug-12 19:20N 40°46' W 073°57'2 4.7
2018-Aug-12 18:56N 40°44' W 073°58'2 3.7
2018-Aug-12 18:21N 40°42' W 073°60'2 5.8
2018-Aug-12 18:00N 40°41' W 074°02'6 0.4
2018-Aug-12 02:26N 40°45' W 073°57'4 8.4
2018-Aug-12 02:00N 40°42' W 073°60'1 2.7
2018-Aug-12 01:30N 40°42' W 074°01'3 5.6
2018-Aug-12 00:59N 40°43' W 073°58'2 0.4
2018-Aug-11 19:10N 40°46' W 073°57'1 6.1
2018-Aug-11 19:00N 40°45' W 073°58'3 5.1
2018-Aug-11 18:30N 40°42' W 073°60'3 5.3
2018-Aug-11 18:00N 40°41' W 074°03'5 8.9
2018-Aug-11 17:26N 40°45' W 073°58'1 0.1
2018-Aug-11 02:13N 40°45' W 073°57'2 7.7
2018-Aug-11 02:00N 40°44' W 073°58'4 7.2
2018-Aug-11 01:30N 40°42' W 074°02'1 2.5
2018-Aug-11 01:00N 40°42' W 074°00'3 5.9
2018-Aug-11 00:28N 40°45' W 073°58'1 0.0
2018-Aug-09 16:26N 40°46' W 073°57'  
2018-Aug-06 02:34N 40°44' W 073°58'2 6.0
2018-Aug-06 02:10N 40°42' W 074°00'1 7.1
2018-Aug-06 02:00N 40°41' W 074°02'4 0.6
2018-Aug-05 19:42N 40°44' W 073°58'2 9.0
2018-Aug-05 19:27N 40°42' W 074°00'1 2.8
2018-Aug-05 19:00N 40°42' W 074°02'3 5.8
2018-Aug-05 18:30N 40°43' W 073°58'2 0.1
2018-Aug-05 01:40N 40°45' W 073°57'1 7.2
2018-Aug-05 01:30N 40°44' W 073°58'3 5.7
2018-Aug-05 01:00N 40°42' W 074°00'1 2.7
2018-Aug-05 00:30N 40°42' W 074°02'4 8.8
2018-Aug-05 00:00N 40°45' W 073°58'1 0.2
2018-Aug-04 20:40N 40°46' W 073°57'1 7.2
2018-Aug-04 20:30N 40°45' W 073°58'4 7.1
2018-Aug-04 20:00N 40°42' W 074°01'1 2.6
2018-Aug-04 19:30N 40°43' W 074°03'1 1.4
2018-Aug-04 19:00N 40°42' W 074°02'1 2.5
2018-Aug-04 18:30N 40°41' W 074°01'2 4.5
2018-Aug-04 18:00N 40°43' W 074°01'3 6.0
2018-Aug-04 17:28N 40°46' W 074°01'3 5.7
2018-Aug-04 16:59N 40°49' W 073°59'3 6.0
2018-Aug-04 16:30N 40°46' W 074°00'3 5.2
2018-Aug-04 16:00N 40°44' W 074°01'1 2.8
2018-Aug-04 15:30N 40°43' W 074°03'0 0.0
2018-Aug-04 15:00N 40°43' W 074°03'0 0.0
2018-Aug-04 14:30N 40°43' W 074°03'0 0.0
2018-Aug-04 14:00N 40°43' W 074°03'0 0.0
2018-Aug-04 13:30N 40°43' W 074°03'2 4.7
2018-Aug-04 12:59N 40°43' W 073°59'  
Track history (hours):
 
Tides and Currents Weather Stations Pressure Air Temp Water Temp Dewpoint Dewpoint Depression Visibility Wind Speed Wind Dir Waves Ship Positions

Skyline Princess

Owner: Skyline Cruise Lines Inc, Flushing, NY. More information available from US FCC via Universal Licensing System and Coast Guard Vessel Documentation Center.

Last reported at 2018-Aug-14 02:58 UTC. Time now 2018-Aug-14 07:04 UTC.
Position N 40°46' W 073°57'.

Length 35 m; draft 1.8 m.

Type: Ship. MMSI: 366946170.

Date/timePositionNaut miles runAvg speedWind from/ knotsBaromVisibWave heightAir tempDewpointWater temp
2018-Aug-14 02:58N 40°46' W 073°57'4 9.6
2018-Aug-14 02:30N 40°42' W 074°00'0 0.4
2018-Aug-14 02:00N 40°42' W 074°01'2 4.5
2018-Aug-14 01:30N 40°43' W 073°58'2 0.1
2018-Aug-13 03:37N 40°46' W 073°57'1 8.0
2018-Aug-13 03:30N 40°45' W 073°58'4 7.5
2018-Aug-13 03:00N 40°42' W 074°01'0 0.5
2018-Aug-13 02:30N 40°42' W 074°01'3 5.2
2018-Aug-13 02:00N 40°44' W 073°58'2 0.3
2018-Aug-12 19:20N 40°46' W 073°57'2 4.7
2018-Aug-12 18:56N 40°44' W 073°58'2 3.7
2018-Aug-12 18:21N 40°42' W 073°60'2 5.8
2018-Aug-12 18:00N 40°41' W 074°02'6 0.4
2018-Aug-12 02:26N 40°45' W 073°57'4 8.4
2018-Aug-12 02:00N 40°42' W 073°60'1 2.7
2018-Aug-12 01:30N 40°42' W 074°01'3 5.6
2018-Aug-12 00:59N 40°43' W 073°58'2 0.4
2018-Aug-11 19:10N 40°46' W 073°57'1 6.1
2018-Aug-11 19:00N 40°45' W 073°58'3 5.1
2018-Aug-11 18:30N 40°42' W 073°60'3 5.3
2018-Aug-11 18:00N 40°41' W 074°03'5 8.9
2018-Aug-11 17:26N 40°45' W 073°58'1 0.1
2018-Aug-11 02:13N 40°45' W 073°57'2 7.7
2018-Aug-11 02:00N 40°44' W 073°58'4 7.2
2018-Aug-11 01:30N 40°42' W 074°02'1 2.5
2018-Aug-11 01:00N 40°42' W 074°00'3 5.9
2018-Aug-11 00:28N 40°45' W 073°58'1 0.0
2018-Aug-09 16:26N 40°46' W 073°57'  
2018-Aug-06 02:34N 40°44' W 073°58'2 6.0
2018-Aug-06 02:10N 40°42' W 074°00'1 7.1
2018-Aug-06 02:00N 40°41' W 074°02'4 0.6
2018-Aug-05 19:42N 40°44' W 073°58'2 9.0
2018-Aug-05 19:27N 40°42' W 074°00'1 2.8
2018-Aug-05 19:00N 40°42' W 074°02'3 5.8
2018-Aug-05 18:30N 40°43' W 073°58'2 0.1
2018-Aug-05 01:40N 40°45' W 073°57'1 7.2
2018-Aug-05 01:30N 40°44' W 073°58'3 5.7
2018-Aug-05 01:00N 40°42' W 074°00'1 2.7
2018-Aug-05 00:30N 40°42' W 074°02'4 8.8
2018-Aug-05 00:00N 40°45' W 073°58'1 0.2
2018-Aug-04 20:40N 40°46' W 073°57'1 7.2
2018-Aug-04 20:30N 40°45' W 073°58'4 7.1
2018-Aug-04 20:00N 40°42' W 074°01'1 2.6
2018-Aug-04 19:30N 40°43' W 074°03'1 1.4
2018-Aug-04 19:00N 40°42' W 074°02'1 2.5
2018-Aug-04 18:30N 40°41' W 074°01'2 4.5
2018-Aug-04 18:00N 40°43' W 074°01'3 6.0
2018-Aug-04 17:28N 40°46' W 074°01'3 5.7
2018-Aug-04 16:59N 40°49' W 073°59'3 6.0
2018-Aug-04 16:30N 40°46' W 074°00'3 5.2
2018-Aug-04 16:00N 40°44' W 074°01'1 2.8
2018-Aug-04 15:30N 40°43' W 074°03'0 0.0
2018-Aug-04 15:00N 40°43' W 074°03'0 0.0
2018-Aug-04 14:30N 40°43' W 074°03'0 0.0
2018-Aug-04 14:00N 40°43' W 074°03'0 0.0
2018-Aug-04 13:30N 40°43' W 074°03'2 4.7
2018-Aug-04 12:59N 40°43' W 073°59'  

Dump ship's entire track history